Latest Weather Observations for Cape Jaffa

IDS60801

Issued at 4:35 pm CST Monday 21 April 2014 (issued every 30 minutes, with the page automatically refreshed every 10 minutes)

About weather observations | Map of weather stations | Latest weather observations for SA | Other Formats
Station Details ID: 026095 Name: THE LIMESTONE Lat: -36.97 Lon: 139.72 Height: 17.0 m
Data from the previous 72 hours. | See also: Recent months at Cape Jaffa
Date/Time
CST
Temp
°C
App
Temp
°C
Dew
Point
Rel
Hum
%
Delta-T
°C
Wind Press
QNH
hPa
Press
MSL
hPa
Rain
since 9 am
mm
Dir
 
Spd
km/h
Gust
km/h
Spd
kts
Gust
kts
21/04:30pm 20.2 17.2 12.7 62 4.2 N 20 28 11 15 1010.0 1009.9 0.0
21/04:00pm 20.2 17.2 12.4 61 4.4 N 20 28 11 15 1009.6 - 0.0
21/03:30pm 21.0 16.1 11.3 54 5.4 N 28 35 15 19 1009.2 1009.1 0.0
21/03:00pm 21.1 16.2 11.2 53 5.5 N 28 37 15 20 1009.5 1009.4 0.0
21/02:30pm 21.3 15.5 10.8 51 5.8 N 32 46 17 25 1009.2 1009.1 0.0
21/02:00pm 21.9 15.9 10.7 49 6.2 N 33 44 18 24 1009.0 - 0.0
21/01:30pm 21.3 15.4 11.1 52 5.6 N 33 44 18 24 1009.3 1009.2 0.0
21/01:00pm 20.7 15.0 11.1 54 5.3 N 32 43 17 23 1009.6 - 0.0
21/12:30pm 20.2 14.4 10.9 55 5.1 N 32 43 17 23 1010.2 1010.1 0.0
21/12:00pm 20.2 13.9 10.9 55 5.1 N 35 46 19 25 1010.9 1010.8 0.0
21/11:30am 19.6 14.2 10.9 57 4.7 N 30 41 16 22 1011.5 1011.4 0.0
21/11:00am 19.2 14.0 10.2 56 4.8 N 28 35 15 19 1012.1 - 0.0
21/10:30am 19.1 11.6 9.6 54 5.0 N 39 50 21 27 1012.3 1012.2 0.0
21/10:00am 17.6 11.2 9.5 59 4.2 N 33 43 18 23 1012.6 - 0.0
21/09:30am 17.5 10.7 9.2 58 4.3 N 35 46 19 25 1012.7 1012.6 0.0
21/09:00am 16.9 10.1 9.1 60 4.0 NNE 35 46 19 25 1012.7 1012.6 0.2
21/08:30am 16.3 9.9 9.3 63 3.6 NNE 33 43 18 23 1012.9 1012.8 0.2
21/08:00am 14.8 9.6 10.2 74 2.4 NNE 28 35 15 19 1013.2 - 0.2
21/07:30am 12.1 8.3 9.8 86 1.2 NE 20 26 11 14 1013.5 1013.4 0.2
21/07:00am 11.4 7.2 9.7 89 0.9 NE 22 26 12 14 1013.5 - 0.2
21/06:30am 11.3 7.6 10.0 92 0.7 ENE 20 24 11 13 1013.9 1013.8 0.2
21/06:00am 11.7 8.3 10.6 93 0.6 ENE 19 22 10 12 1014.2 1014.1 0.2
21/05:30am 12.0 9.1 10.9 93 0.6 ENE 17 20 9 11 1014.6 1014.5 0.2
21/05:00am 11.8 9.6 10.9 94 0.5 ENE 13 15 7 8 1015.1 - 0.2
21/04:30am 12.2 10.1 11.3 94 0.5 ENE 13 15 7 8 1014.9 1014.8 0.2
21/04:00am 12.0 10.2 10.9 93 0.6 NE 11 13 6 7 1014.9 - 0.2
21/03:30am 12.3 9.5 11.4 94 0.5 ENE 17 20 9 11 1014.4 1014.3 0.2
21/03:00am 11.8 9.3 10.9 94 0.5 ENE 15 19 8 10 1015.4 1015.3 0.2
21/02:30am 11.7 10.2 10.6 93 0.6 ENE 9 11 5 6 1015.9 1015.9 0.2
21/02:00am 11.4 9.4 10.3 93 0.6 E 11 13 6 7 1015.7 - 0.0
21/01:30am 11.7 10.2 10.6 93 0.6 ENE 9 11 5 6 1016.4 1016.4 0.0
21/01:00am 11.9 10.4 10.6 92 0.7 ENE 9 9 5 5 1016.5 - 0.0
21/12:30am 11.6 10.6 10.3 92 0.7 ENE 6 7 3 4 1016.7 1016.7 0.0
21/12:00am 11.7 10.5 10.4 92 0.7 E 7 9 4 5 1016.4 1016.4 0.0
 
Date/Time
CST
Temp
°C
App
Temp
°C
Dew
Point
Rel
Hum
%
Delta-T
°C
Wind Press
QNH
hPa
Press
MSL
hPa
Rain
since 9 am
mm
Dir
 
Spd
km/h
Gust
km/h
Spd
kts
Gust
kts
20/11:30pm 12.1 12.3 10.7 91 0.7 ENE 0 7 0 4 1017.0 1017.0 0.0
20/11:00pm 13.4 14.0 11.8 90 0.9 CALM 0 0 0 0 1017.6 - 0.0
20/10:30pm 13.5 14.1 11.9 90 0.9 CALM 0 0 0 0 1018.0 1018.0 0.0
20/10:00pm 13.7 13.5 11.9 89 1.0 SW 4 6 2 3 1018.0 - 0.0
20/09:30pm 13.3 12.6 11.4 88 1.0 WSW 6 7 3 4 1018.0 1018.0 0.0
20/09:00pm 13.6 12.9 11.5 87 1.1 WSW 6 7 3 4 1018.0 1018.0 0.0
20/08:30pm 13.8 13.2 11.7 87 1.1 W 6 6 3 3 1018.0 1018.0 0.0
20/08:00pm 14.0 13.3 11.9 87 1.1 W 7 9 4 5 1018.0 - 0.0
20/07:30pm 14.2 13.5 11.9 86 1.2 W 7 9 4 5 1017.8 1017.8 0.0
20/07:00pm 14.3 12.9 12.2 87 1.1 WSW 11 13 6 7 1017.8 - 0.0
20/06:30pm 14.6 13.6 12.3 86 1.2 WSW 9 11 5 6 1017.3 1017.3 0.0
20/06:00pm 15.6 13.5 12.5 82 1.7 WSW 15 19 8 10 1017.1 1017.1 0.0
20/05:30pm 15.9 14.9 13.4 85 1.4 NW 11 17 6 9 1017.0 1017.0 0.0
20/05:00pm 16.6 14.3 13.1 80 2.0 NW 17 22 9 12 1016.8 - 0.0
20/04:30pm 16.8 14.4 12.7 77 2.3 NNW 17 22 9 12 1016.7 1016.7 0.0
20/04:00pm 17.2 14.2 12.5 74 2.6 NNW 20 26 11 14 1016.6 - 0.0
20/03:30pm 17.3 13.9 12.6 74 2.6 NNW 22 28 12 15 1016.6 1016.6 0.0
20/03:00pm 17.0 13.7 12.9 77 2.3 NNW 22 26 12 14 1016.5 1016.5 0.0
20/02:30pm 14.9 12.0 12.8 87 1.2 WNW 20 37 11 20 1016.6 1016.6 0.0
20/02:00pm 17.6 14.1 12.1 70 3.0 NW 22 32 12 17 1016.6 - 0.0
20/01:30pm 17.3 13.4 12.0 71 2.9 NW 24 37 13 20 1016.6 1016.6 0.0
20/01:00pm 18.5 14.3 12.3 67 3.4 NW 26 33 14 18 1016.8 - 0.0
20/12:30pm 20.5 16.9 13.0 62 4.3 NNW 24 32 13 17 1017.0 1017.0 0.0
20/12:00pm 18.4 14.4 11.7 65 3.7 NNW 24 32 13 17 1017.3 1017.3 0.0
20/11:30am 18.6 14.5 12.6 68 3.3 NNW 26 33 14 18 1017.6 1017.6 0.0
20/11:00am 18.2 13.6 12.2 68 3.3 N 28 35 15 19 1017.6 - 0.0
20/10:30am 18.6 14.2 11.7 64 3.8 N 26 32 14 17 1017.7 1017.7 0.0
20/10:00am 17.9 14.0 12.1 69 3.2 NNW 24 32 13 17 1018.0 - 0.0
20/09:30am 17.8 13.4 11.8 68 3.3 NNW 26 33 14 18 1018.1 1018.1 0.0
20/09:00am 16.7 12.5 11.2 70 3.0 NNW 24 30 13 16 1018.0 1018.0 -
20/08:30am 16.5 12.7 11.0 70 2.9 NNW 22 28 12 15 1017.9 1017.9 -
20/08:00am 15.9 11.4 10.2 69 3.0 NNW 24 30 13 16 1017.7 - -
20/07:30am 15.7 11.1 9.6 67 3.2 NNW 24 32 13 17 1017.3 1017.3 -
20/07:00am 15.5 10.8 9.4 67 3.2 NNW 24 30 13 16 1017.1 - -
20/06:30am 15.4 10.7 9.3 67 3.1 NNW 24 32 13 17 1017.1 1017.1 -
20/06:00am 15.2 10.5 9.3 68 3.0 NNW 24 32 13 17 1016.7 1016.7 -
20/05:30am 15.2 11.3 9.6 69 2.9 NNW 20 26 11 14 1016.7 1016.7 -
20/05:00am 15.1 11.6 10.1 72 2.6 N 19 24 10 13 1016.5 - -
20/04:30am 15.1 11.5 9.7 70 2.8 N 19 24 10 13 1016.5 1016.5 -
20/03:30am 14.7 11.6 8.9 68 2.9 N 15 20 8 11 1016.5 1016.5 0.0
20/03:00am 14.6 11.5 9.0 69 2.8 N 15 20 8 11 1016.5 1016.5 0.0
20/02:30am 14.0 12.0 8.6 70 2.7 N 9 11 5 6 1016.8 1016.8 0.0
20/02:00am 13.2 11.3 7.6 69 2.7 N 7 9 4 5 1016.9 - 0.0
20/01:30am 13.3 10.3 7.7 69 2.7 N 13 17 7 9 1017.1 1017.1 0.0
20/01:00am 14.5 11.7 6.8 60 3.7 WNW 11 19 6 10 1017.5 - 0.0
20/12:30am 14.2 12.3 9.0 71 2.6 N 9 15 5 8 1017.4 1017.4 0.0
20/12:00am 13.2 11.4 8.1 71 2.5 N 7 9 4 5 1017.4 1017.4 0.0
 
Date/Time
CST
Temp
°C
App
Temp
°C
Dew
Point
Rel
Hum
%
Delta-T
°C
Wind Press
QNH
hPa
Press
MSL
hPa
Rain
since 9 am
mm
Dir
 
Spd
km/h
Gust
km/h
Spd
kts
Gust
kts
19/11:30pm 12.5 11.2 7.8 73 2.3 E 4 7 2 4 1017.7 1017.7 0.0
19/11:00pm 12.4 11.6 8.1 75 2.1 SE 2 6 1 3 1018.0 - 0.0
19/10:30pm 12.2 11.0 7.9 75 2.1 E 4 6 2 3 1018.3 1018.3 0.0
19/10:00pm 12.3 10.6 8.2 76 2.0 ENE 7 9 4 5 1018.6 - 0.0
19/09:30pm 12.6 10.5 8.3 75 2.1 ENE 9 11 5 6 1018.5 1018.5 0.0
19/09:00pm 12.6 10.9 8.3 75 2.1 NE 7 7 4 4 1018.7 1018.7 0.0
19/08:30pm 13.3 12.9 8.4 72 2.4 CALM 0 4 0 2 1018.8 1018.8 0.0
19/08:00pm 13.4 12.7 8.5 72 2.4 N 2 4 1 2 1018.9 - 0.0
19/07:30pm 13.3 12.6 8.6 73 2.3 N 2 4 1 2 1019.1 1019.1 0.0
19/07:00pm 13.4 11.8 8.7 73 2.4 N 7 9 4 5 1019.0 - 0.0
19/06:30pm 13.1 11.5 8.6 74 2.2 N 7 9 4 5 1019.0 1019.0 0.0
19/06:00pm 12.8 10.7 8.1 73 2.3 N 9 11 5 6 1019.1 1019.1 0.0
19/05:30pm 14.1 12.6 8.3 68 2.9 NW 6 9 3 5 1019.1 1019.1 0.0
19/05:00pm 14.8 13.3 8.3 65 3.3 NW 6 7 3 4 1019.2 - 0.0
19/04:30pm 14.9 13.2 8.2 64 3.4 NW 7 9 4 5 1019.3 1019.3 0.0
19/04:00pm 14.9 12.7 7.7 62 3.6 NW 9 11 5 6 1019.6 - 0.0
19/03:30pm 15.2 12.7 8.2 63 3.5 NNW 11 13 6 7 1019.7 1019.7 0.0
19/03:00pm 15.4 12.4 7.7 60 3.8 NNW 13 19 7 10 1019.8 1019.8 0.0
19/02:30pm 15.6 12.1 7.4 58 4.1 NNW 15 20 8 11 1019.9 1019.9 0.0
19/02:00pm 16.0 11.5 6.2 52 4.8 NNW 19 24 10 13 1020.0 - 0.0
19/01:30pm 16.4 13.7 5.7 49 5.1 WSW 9 15 5 8 1020.1 1020.1 0.0
19/01:00pm 16.6 14.0 5.9 49 5.2 W 9 20 5 11 1020.6 - 0.0
19/12:30pm 16.8 13.7 5.4 47 5.5 WSW 11 17 6 9 1021.0 1021.0 0.0
19/12:00pm 16.6 13.8 5.3 47 5.4 W 9 15 5 8 1021.5 1021.5 0.0
19/11:30am 16.7 13.9 5.3 47 5.4 W 9 17 5 9 1021.9 1021.9 0.0
19/11:00am 15.5 13.6 5.1 50 4.9 WSW 4 11 2 6 1022.2 - 0.0
19/10:30am 15.6 13.4 5.2 50 4.9 WNW 6 9 3 5 1022.6 1022.6 0.0
19/10:00am 15.7 12.7 5.9 52 4.7 SSW 11 17 6 9 1022.7 - 0.0
19/09:30am 15.6 11.8 5.8 52 4.7 SSW 15 19 8 10 1022.8 1022.8 0.0
19/09:00am 15.4 12.1 6.2 54 4.4 SSW 13 17 7 9 1022.8 1022.8 0.0
19/08:30am 14.8 11.3 7.4 61 3.6 S 15 19 8 10 1022.8 1022.8 0.0
19/08:00am 14.2 11.2 7.9 66 3.1 S 13 19 7 10 1022.7 - 0.0
19/07:30am 12.8 11.0 5.5 61 3.4 E 4 4 2 2 1022.5 1022.5 0.0
19/07:00am 13.1 12.0 5.0 58 3.8 CALM 0 0 0 0 1022.2 - 0.0
19/06:30am 13.0 11.6 5.7 61 3.4 S 2 7 1 4 1022.2 1022.2 0.0
19/06:00am 13.4 12.2 4.8 56 4.0 CALM 0 0 0 0 1022.1 1022.1 0.0
19/05:30am 13.6 11.2 4.5 54 4.2 SW 6 6 3 3 1022.0 1022.0 0.0
19/05:00am 13.9 10.9 3.9 51 4.6 S 9 11 5 6 1021.9 - 0.0
19/04:30am 14.2 10.7 3.7 49 4.7 SW 11 17 6 9 1021.9 1021.9 0.0
19/04:00am 13.8 9.6 3.6 50 4.6 SSW 15 19 8 10 1021.6 - 0.0
19/03:30am 14.1 9.1 3.8 50 4.7 SSW 19 24 10 13 1021.6 1021.6 0.0
19/03:00am 14.1 9.1 3.6 49 4.7 SSW 19 22 10 12 1021.7 1021.7 0.0
19/02:30am 13.1 10.9 5.5 60 3.5 SSE 6 7 3 4 1021.9 1021.9 0.0
19/02:00am 13.5 10.1 5.7 59 3.7 S 13 17 7 9 1022.2 - 0.0
19/01:30am 13.8 10.1 6.2 60 3.6 S 15 20 8 11 1022.4 1022.4 0.0
19/01:00am 12.3 10.8 6.8 69 2.6 ESE 4 6 2 3 1022.4 - 0.0
19/12:30am 13.0 10.6 6.8 66 3.0 SSE 9 11 5 6 1022.5 1022.5 0.0
19/12:00am 13.7 9.4 7.0 64 3.2 S 19 24 10 13 1022.6 1022.6 0.0
 
Date/Time
CST
Temp
°C
App
Temp
°C
Dew
Point
Rel
Hum
%
Delta-T
°C
Wind Press
QNH
hPa
Press
MSL
hPa
Rain
since 9 am
mm
Dir
 
Spd
km/h
Gust
km/h
Spd
kts
Gust
kts
18/11:30pm 11.3 10.0 6.0 70 2.5 SSE 2 4 1 2 1022.7 1022.7 0.0
18/11:00pm 11.8 10.2 6.5 70 2.5 SE 4 7 2 4 1022.8 - 0.0
18/10:30pm 12.2 10.8 7.1 71 2.4 SE 4 6 2 3 1023.2 1023.2 0.0
18/10:00pm 12.2 10.8 7.1 71 2.5 ESE 4 4 2 2 1023.3 - 0.0
18/09:30pm 12.2 10.4 7.3 72 2.4 ESE 6 9 3 5 1023.3 1023.3 0.0
18/09:00pm 12.4 10.6 7.3 71 2.5 SSE 6 7 3 4 1023.2 1023.2 0.0
18/08:30pm 12.8 10.8 7.3 69 2.7 SSE 7 11 4 6 1023.2 1023.2 0.0
18/08:00pm 12.7 9.9 7.0 68 2.7 SSE 11 13 6 7 1023.0 - 0.0
18/07:30pm 13.0 9.0 6.8 66 3.0 S 17 20 9 11 1022.7 1022.7 0.0
18/07:00pm 13.8 9.4 7.3 65 3.2 S 20 26 11 14 1022.6 - 0.0
18/06:30pm 13.9 9.6 7.2 64 3.3 S 19 24 10 13 1022.3 1022.3 0.0
18/06:00pm 14.1 9.4 7.9 66 3.1 SSW 22 30 12 16 1022.3 1022.3 0.0
18/05:30pm 15.2 9.7 7.7 61 3.7 SSW 26 30 14 16 1022.0 1022.0 0.0
18/05:00pm 15.5 10.3 7.3 58 4.1 SSW 24 32 13 17 1022.0 - 0.0

Other Formats:

Comma delimited format used in spreadsheet applications
http://www.bom.gov.au/fwo/IDS60801/IDS60801.94813.axf

JavaScript Object Notation format (JSON) in row-major order
http://www.bom.gov.au/fwo/IDS60801/IDS60801.94813.json